createdAt,value
2023-11-26T00:00:15.137Z,-5.17
2023-11-26T00:02:43.506Z,-5.15
2023-11-26T00:05:11.745Z,-5.14
2023-11-26T00:07:41.218Z,-5.14
2023-11-26T00:10:12.442Z,-5.13
2023-11-26T00:12:40.472Z,-5.14
2023-11-26T00:15:10.080Z,-5.15
2023-11-26T00:17:38.343Z,-5.16
2023-11-26T00:20:08.099Z,-5.12
2023-11-26T00:22:36.033Z,-5.16
2023-11-26T00:25:06.010Z,-5.12
2023-11-26T00:27:34.673Z,-5.11
2023-11-26T00:30:02.706Z,-5.15
2023-11-26T00:32:32.287Z,-5.13
2023-11-26T00:35:02.837Z,-5.17
2023-11-26T00:37:30.809Z,-5.25
2023-11-26T00:39:59.390Z,-5.14
2023-11-26T00:42:28.807Z,-5.23
2023-11-26T00:44:56.814Z,-5.15
2023-11-26T00:47:25.051Z,-5.31
2023-11-26T00:49:53.258Z,-5.19
2023-11-26T00:52:21.262Z,-5.17
2023-11-26T00:54:49.370Z,-5.23
2023-11-26T00:57:18.721Z,-5.26
2023-11-26T00:59:48.500Z,-5.17
2023-11-26T01:02:16.811Z,-5.26
2023-11-26T01:04:45.074Z,-5.37
2023-11-26T01:07:13.696Z,-5.25
2023-11-26T01:09:41.830Z,-5.31
2023-11-26T01:12:14.727Z,-5.48
2023-11-26T01:14:42.882Z,-5.71
2023-11-26T01:17:12.302Z,-5.63
2023-11-26T01:19:40.581Z,-5.56
2023-11-26T01:22:10.537Z,-5.61
2023-11-26T01:24:38.582Z,-5.64
2023-11-26T01:27:07.179Z,-5.79
2023-11-26T01:29:35.354Z,-5.81
2023-11-26T01:32:03.323Z,-5.96
2023-11-26T01:34:32.868Z,-5.94
2023-11-26T01:37:01.351Z,-6.04
2023-11-26T01:39:29.342Z,-5.93
2023-11-26T01:41:58.124Z,-5.91
2023-11-26T01:44:28.327Z,-6.08
2023-11-26T01:46:57.237Z,-5.97
2023-11-26T01:49:26.491Z,-6.01
2023-11-26T01:51:56.533Z,-6.09
2023-11-26T01:54:24.530Z,-6.18
2023-11-26T01:56:52.639Z,-6.20
2023-11-26T01:59:20.839Z,-6.16
2023-11-26T02:01:49.009Z,-6.24
2023-11-26T02:04:17.278Z,-6.22
2023-11-26T02:06:45.421Z,-6.26
2023-11-26T02:09:18.162Z,-6.32
2023-11-26T02:11:46.266Z,-6.28
2023-11-26T02:14:14.794Z,-6.13
2023-11-26T02:16:47.925Z,-6.12
2023-11-26T02:19:26.709Z,-6.19
2023-11-26T02:21:55.063Z,-6.27
2023-11-26T02:24:28.658Z,-6.15
2023-11-26T02:26:58.854Z,-6.17
2023-11-26T02:29:26.811Z,-6.26
2023-11-26T02:31:54.895Z,-6.13
2023-11-26T02:34:25.805Z,-6.21
2023-11-26T02:36:55.144Z,-6.09
2023-11-26T02:39:24.676Z,-6.34
2023-11-26T02:41:52.946Z,-6.33
2023-11-26T02:44:22.294Z,-6.22
2023-11-26T02:46:50.405Z,-6.20
2023-11-26T02:49:18.495Z,-6.15
2023-11-26T02:51:46.687Z,-6.28
2023-11-26T02:54:14.745Z,-6.40
2023-11-26T02:56:45.066Z,-6.20
2023-11-26T02:59:13.182Z,-6.20
2023-11-26T03:01:42.624Z,-6.16
2023-11-26T03:04:11.449Z,-6.14
2023-11-26T03:06:42.484Z,-6.07
2023-11-26T03:09:32.143Z,-5.98
2023-11-26T03:12:17.855Z,-6.06
2023-11-26T03:14:47.715Z,-6.00
2023-11-26T03:17:17.341Z,-6.05
2023-11-26T03:19:47.127Z,-6.00
2023-11-26T03:22:15.247Z,-6.04
2023-11-26T03:24:44.009Z,-6.09
2023-11-26T03:27:14.185Z,-6.00
2023-11-26T03:29:42.594Z,-6.03
2023-11-26T03:32:10.613Z,-6.08
2023-11-26T03:34:40.359Z,-6.19
2023-11-26T03:37:08.433Z,-6.17
2023-11-26T03:39:41.742Z,-6.19
2023-11-26T03:42:19.817Z,-6.27
2023-11-26T03:44:54.306Z,-6.41
2023-11-26T03:47:26.721Z,-6.29
2023-11-26T03:49:56.181Z,-6.24
2023-11-26T03:52:24.835Z,-6.11
2023-11-26T03:54:52.955Z,-6.10
2023-11-26T03:57:21.604Z,-5.92
2023-11-26T03:59:49.825Z,-5.87
2023-11-26T04:02:18.037Z,-5.85
2023-11-26T04:04:46.477Z,-5.71
2023-11-26T04:07:15.946Z,-5.67
2023-11-26T04:09:43.875Z,-5.70
2023-11-26T04:12:11.946Z,-5.64
2023-11-26T04:14:40.798Z,-5.63
2023-11-26T04:17:08.877Z,-5.58
2023-11-26T04:19:36.936Z,-5.58
2023-11-26T04:22:05.265Z,-5.68
2023-11-26T04:24:34.756Z,-5.63
2023-11-26T04:27:04.877Z,-5.42
2023-11-26T04:29:32.998Z,-5.52
2023-11-26T04:32:04.020Z,-5.44
2023-11-26T04:34:31.965Z,-5.58
2023-11-26T04:36:59.950Z,-5.57
2023-11-26T04:39:28.236Z,-5.62
2023-11-26T04:41:57.681Z,-5.48
2023-11-26T04:44:28.329Z,-5.51
2023-11-26T04:46:56.610Z,-5.37
2023-11-26T04:49:25.091Z,-5.39
2023-11-26T04:51:53.564Z,-5.42
2023-11-26T04:54:22.634Z,-5.48
2023-11-26T04:56:50.989Z,-5.36
2023-11-26T04:59:20.442Z,-5.44
2023-11-26T05:01:55.435Z,-5.37
2023-11-26T05:04:24.508Z,-5.46
2023-11-26T05:06:53.534Z,-5.38
2023-11-26T05:09:22.225Z,-5.50
2023-11-26T05:11:50.359Z,-5.50
2023-11-26T05:14:18.556Z,-5.45
2023-11-26T05:16:48.102Z,-5.44
2023-11-26T05:19:16.507Z,-5.39
2023-11-26T05:21:44.782Z,-5.49
2023-11-26T05:24:12.834Z,-5.53
2023-11-26T05:26:40.802Z,-5.34
2023-11-26T05:29:09.690Z,-5.36
2023-11-26T05:31:37.746Z,-5.48
2023-11-26T05:34:07.514Z,-5.57
2023-11-26T05:36:40.171Z,-5.43
2023-11-26T05:39:09.683Z,-5.54
2023-11-26T05:41:37.677Z,-5.38
2023-11-26T05:44:06.090Z,-5.38
2023-11-26T05:46:34.047Z,-5.53
2023-11-26T05:49:02.196Z,-5.43
2023-11-26T05:51:31.727Z,-5.43
2023-11-26T05:53:59.727Z,-5.36
2023-11-26T05:56:27.649Z,-5.42
2023-11-26T05:58:56.611Z,-5.52
2023-11-26T06:01:25.759Z,-5.41
2023-11-26T06:03:55.864Z,-5.41
2023-11-26T06:06:24.654Z,-5.42
2023-11-26T06:08:53.926Z,-5.35
2023-11-26T06:11:21.816Z,-5.51
2023-11-26T06:13:50.010Z,-5.41
2023-11-26T06:16:18.062Z,-5.48
2023-11-26T06:18:46.085Z,-5.44
2023-11-26T06:21:15.983Z,-5.47
2023-11-26T06:23:43.929Z,-5.60
2023-11-26T06:26:17.770Z,-5.47
2023-11-26T06:28:45.752Z,-5.48
2023-11-26T06:31:21.587Z,-5.46
2023-11-26T06:33:49.913Z,-5.59
2023-11-26T06:36:23.275Z,-5.49
2023-11-26T06:38:52.178Z,-5.53
2023-11-26T06:41:26.291Z,-5.45
2023-11-26T06:43:55.160Z,-5.42
2023-11-26T06:46:24.467Z,-5.60
2023-11-26T06:48:55.923Z,-5.45
2023-11-26T06:51:24.553Z,-5.57
2023-11-26T06:53:53.530Z,-5.57
2023-11-26T06:56:21.877Z,-5.41
2023-11-26T06:58:51.331Z,-5.49
2023-11-26T07:01:19.440Z,-5.50
2023-11-26T07:03:49.116Z,-5.42
2023-11-26T07:06:17.644Z,-5.45
2023-11-26T07:08:45.691Z,-5.48
2023-11-26T07:11:23.815Z,-5.59
2023-11-26T07:13:57.387Z,-5.57
2023-11-26T07:16:26.424Z,-5.64
2023-11-26T07:18:54.554Z,-5.76
2023-11-26T07:21:22.748Z,-5.70
2023-11-26T07:23:52.077Z,-5.71
2023-11-26T07:26:22.583Z,-5.73
2023-11-26T07:28:52.695Z,-5.86
2023-11-26T07:31:21.916Z,-5.85
2023-11-26T07:33:49.946Z,-5.81
2023-11-26T07:36:24.323Z,-5.75
2023-11-26T07:38:53.329Z,-5.92
2023-11-26T07:41:22.150Z,-5.88
2023-11-26T07:43:50.848Z,-5.75
2023-11-26T07:46:22.588Z,-5.68
2023-11-26T07:48:51.406Z,-5.72
2023-11-26T07:51:20.067Z,-5.66
2023-11-26T07:53:48.273Z,-5.56
2023-11-26T07:56:17.863Z,-5.68
2023-11-26T07:58:46.609Z,-5.65
2023-11-26T08:01:15.048Z,-5.58
2023-11-26T08:03:44.559Z,-5.52
2023-11-26T08:06:15.094Z,-5.67
2023-11-26T08:08:45.305Z,-5.51
2023-11-26T08:11:14.512Z,-5.43
2023-11-26T08:13:43.345Z,-5.52
2023-11-26T08:16:15.361Z,-5.37
2023-11-26T08:18:45.115Z,-5.38
2023-11-26T08:21:13.179Z,-5.25
2023-11-26T08:23:45.545Z,-5.23
2023-11-26T08:26:16.856Z,-5.15
2023-11-26T08:28:45.349Z,-5.18
2023-11-26T08:31:13.674Z,-5.06
2023-11-26T08:33:45.023Z,-4.92
2023-11-26T08:36:19.742Z,-4.92
2023-11-26T08:38:48.650Z,-4.88
2023-11-26T08:41:21.887Z,-4.90
2023-11-26T08:43:52.441Z,-4.91
2023-11-26T08:46:22.773Z,-4.83
2023-11-26T08:48:53.821Z,-4.74
2023-11-26T08:51:26.863Z,-4.78
2023-11-26T08:53:55.111Z,-4.71
2023-11-26T08:56:23.073Z,-4.60
2023-11-26T08:58:51.015Z,-4.72
2023-11-26T09:01:19.074Z,-4.61
2023-11-26T09:03:47.543Z,-4.70
2023-11-26T09:06:15.672Z,-4.52
2023-11-26T09:08:50.549Z,-4.56
2023-11-26T09:11:18.712Z,-4.49
2023-11-26T09:13:47.370Z,-4.55
2023-11-26T09:16:17.516Z,-4.40
2023-11-26T09:18:45.746Z,-4.56
2023-11-26T09:21:13.984Z,-4.47
2023-11-26T09:23:46.419Z,-4.46
2023-11-26T09:26:15.594Z,-4.47
2023-11-26T09:28:45.545Z,-4.43
2023-11-26T09:31:15.112Z,-4.55
2023-11-26T09:33:43.207Z,-4.53
2023-11-26T09:36:11.926Z,-4.42
2023-11-26T09:38:40.444Z,-4.28
2023-11-26T09:41:10.356Z,-4.20
2023-11-26T09:43:39.255Z,-4.18
2023-11-26T09:46:07.676Z,-4.22
2023-11-26T09:48:36.128Z,-4.29
2023-11-26T09:51:07.034Z,-4.12
2023-11-26T09:53:36.230Z,-4.10
2023-11-26T09:56:05.618Z,-4.11
2023-11-26T09:58:44.222Z,-3.92
2023-11-26T10:01:12.744Z,-3.83
2023-11-26T10:04:00.755Z,-3.87
2023-11-26T10:06:29.590Z,-3.91
2023-11-26T10:08:59.096Z,-3.95
2023-11-26T10:11:28.813Z,-3.85
2023-11-26T10:13:58.734Z,-3.94
2023-11-26T10:16:33.413Z,-3.95
2023-11-26T10:19:03.371Z,-4.10
2023-11-26T10:21:32.113Z,-4.00
2023-11-26T10:24:01.893Z,-4.18
2023-11-26T10:26:30.483Z,-4.10
2023-11-26T10:29:04.966Z,-4.05
2023-11-26T10:31:33.135Z,-4.09
2023-11-26T10:34:10.368Z,-4.28
2023-11-26T10:36:38.518Z,-4.40
2023-11-26T10:39:10.441Z,-4.27
2023-11-26T10:41:39.640Z,-4.29
2023-11-26T10:44:10.726Z,-4.33
2023-11-26T10:46:39.232Z,-4.35
2023-11-26T10:49:16.024Z,-4.19
2023-11-26T10:51:49.146Z,-4.21
2023-11-26T10:54:25.754Z,-4.13
2023-11-26T10:56:58.378Z,-4.11
2023-11-26T10:59:31.446Z,-4.13
2023-11-26T11:02:04.988Z,-3.90
2023-11-26T11:04:38.181Z,-3.92
2023-11-26T11:07:06.873Z,-3.82
2023-11-26T11:09:41.489Z,-4.01
2023-11-26T11:12:13.193Z,-4.17
2023-11-26T11:14:43.278Z,-4.00
2023-11-26T11:17:11.579Z,-4.01
2023-11-26T11:19:49.764Z,-3.79
2023-11-26T11:22:18.446Z,-3.70
2023-11-26T11:24:46.492Z,-3.70
2023-11-26T11:27:14.943Z,-3.72
2023-11-26T11:29:44.781Z,-3.74
2023-11-26T11:32:12.719Z,-3.66
2023-11-26T11:34:40.789Z,-3.57
2023-11-26T11:37:10.107Z,-3.55
2023-11-26T11:39:48.458Z,-3.67
2023-11-26T11:42:21.851Z,-3.48
2023-11-26T11:44:53.087Z,-3.60
2023-11-26T11:47:44.554Z,-3.63
2023-11-26T11:50:16.283Z,-3.53
2023-11-26T11:52:46.212Z,-3.45
2023-11-26T11:55:37.466Z,-3.23
2023-11-26T11:58:14.652Z,-3.43
2023-11-26T12:00:46.175Z,-3.45
2023-11-26T12:03:19.044Z,-3.58
2023-11-26T12:05:47.724Z,-3.60
2023-11-26T12:08:16.750Z,-3.60
2023-11-26T12:10:45.731Z,-3.52
2023-11-26T12:13:14.188Z,-3.45
2023-11-26T12:15:57.784Z,-3.60
2023-11-26T12:18:26.193Z,-3.52
2023-11-26T12:20:54.187Z,-3.55
2023-11-26T12:23:37.295Z,-3.35
2023-11-26T12:26:06.338Z,-3.43
2023-11-26T12:28:43.387Z,-3.33
2023-11-26T12:31:13.654Z,-3.32
2023-11-26T12:33:44.854Z,-3.43
2023-11-26T12:36:13.945Z,-3.56
2023-11-26T12:38:43.441Z,-3.55
2023-11-26T12:41:12.397Z,-3.57
2023-11-26T12:43:41.428Z,-3.64
2023-11-26T12:46:10.800Z,-3.49
2023-11-26T12:48:40.732Z,-3.53
2023-11-26T12:51:09.653Z,-3.56
2023-11-26T12:53:37.912Z,-3.61
2023-11-26T12:56:06.431Z,-3.59
2023-11-26T12:58:35.798Z,-3.55
2023-11-26T13:01:04.180Z,-3.78
2023-11-26T13:03:32.381Z,-3.79
2023-11-26T13:06:09.951Z,-3.71
2023-11-26T13:08:38.052Z,-3.73
2023-11-26T13:11:07.669Z,-3.73
2023-11-26T13:13:36.207Z,-3.85
2023-11-26T13:16:05.586Z,-3.90
2023-11-26T13:18:33.885Z,-3.92
2023-11-26T13:21:07.118Z,-4.02
2023-11-26T13:23:36.697Z,-3.94
2023-11-26T13:26:07.582Z,-4.02
2023-11-26T13:28:35.775Z,-4.06
2023-11-26T13:31:03.756Z,-4.10
2023-11-26T13:33:32.467Z,-4.01
2023-11-26T13:36:01.606Z,-4.02
2023-11-26T13:38:29.593Z,-4.04
2023-11-26T13:40:58.951Z,-4.00
2023-11-26T13:43:27.286Z,-3.98
2023-11-26T13:45:56.414Z,-4.12
2023-11-26T13:48:26.172Z,-4.12
2023-11-26T13:50:54.646Z,-4.06
2023-11-26T13:53:24.634Z,-4.11
2023-11-26T13:55:54.696Z,-4.19
2023-11-26T13:58:24.403Z,-4.15
2023-11-26T14:00:52.392Z,-4.14
2023-11-26T14:03:20.661Z,-4.15
2023-11-26T14:05:49.090Z,-4.25
2023-11-26T14:08:17.030Z,-4.22
2023-11-26T14:10:46.380Z,-4.18
2023-11-26T14:13:19.033Z,-4.15
2023-11-26T14:15:50.611Z,-4.13
2023-11-26T14:18:19.431Z,-4.21
2023-11-26T14:20:47.342Z,-4.27
2023-11-26T14:23:15.311Z,-4.17
2023-11-26T14:25:44.911Z,-4.20
2023-11-26T14:28:13.047Z,-4.20
2023-11-26T14:30:43.766Z,-4.28
2023-11-26T14:33:13.583Z,-4.29
2023-11-26T14:35:44.398Z,-4.25
2023-11-26T14:38:13.767Z,-4.36
2023-11-26T14:40:41.765Z,-4.31
2023-11-26T14:43:09.920Z,-4.31
2023-11-26T14:45:38.022Z,-4.20
2023-11-26T14:48:08.526Z,-4.15
2023-11-26T14:50:37.926Z,-4.14
2023-11-26T14:53:06.005Z,-4.17
2023-11-26T14:55:34.066Z,-4.21
2023-11-26T14:58:02.392Z,-4.17
2023-11-26T15:00:30.700Z,-4.20
2023-11-26T15:02:59.280Z,-4.17
2023-11-26T15:05:27.301Z,-4.19
2023-11-26T15:07:57.639Z,-4.09
2023-11-26T15:10:27.140Z,-4.14
2023-11-26T15:12:56.160Z,-4.14
2023-11-26T15:15:24.191Z,-4.17
2023-11-26T15:17:52.863Z,-4.29
2023-11-26T15:20:22.333Z,-4.23
2023-11-26T15:22:52.320Z,-4.19
2023-11-26T15:25:21.729Z,-4.16
2023-11-26T15:27:49.754Z,-4.13
2023-11-26T15:30:18.108Z,-4.04
2023-11-26T15:32:46.165Z,-4.02
2023-11-26T15:35:14.200Z,-4.07
2023-11-26T15:37:42.386Z,-4.06
2023-11-26T15:40:12.998Z,-3.97
2023-11-26T15:42:42.858Z,-4.01
2023-11-26T15:45:14.449Z,-4.04
2023-11-26T15:47:44.550Z,-4.00
2023-11-26T15:50:14.113Z,-4.11
2023-11-26T15:52:42.572Z,-4.15
2023-11-26T15:55:13.246Z,-4.10
2023-11-26T15:57:43.285Z,-4.08
2023-11-26T16:00:14.317Z,-3.98
2023-11-26T16:02:43.570Z,-4.11
2023-11-26T16:05:12.836Z,-4.05
2023-11-26T16:07:40.926Z,-4.01
2023-11-26T16:10:10.200Z,-4.09
2023-11-26T16:12:38.369Z,-4.00
2023-11-26T16:15:11.624Z,-3.99
2023-11-26T16:17:43.185Z,-3.99
2023-11-26T16:20:12.925Z,-3.94
2023-11-26T16:22:41.025Z,-3.93
2023-11-26T16:25:11.101Z,-3.95
2023-11-26T16:27:39.567Z,-4.13
2023-11-26T16:30:10.379Z,-3.99
2023-11-26T16:32:38.371Z,-3.89
2023-11-26T16:35:07.089Z,-4.01
2023-11-26T16:37:35.251Z,-4.01
2023-11-26T16:40:05.933Z,-3.92
2023-11-26T16:42:34.961Z,-3.99
2023-11-26T16:45:04.182Z,-3.90
2023-11-26T16:47:36.223Z,-3.86
2023-11-26T16:50:06.960Z,-4.00
2023-11-26T16:52:34.893Z,-3.99
2023-11-26T16:55:02.855Z,-3.98
2023-11-26T16:57:31.073Z,-4.02
2023-11-26T16:59:59.027Z,-3.95
2023-11-26T17:02:27.297Z,-4.00
2023-11-26T17:04:56.800Z,-4.08
2023-11-26T17:07:24.821Z,-3.88
2023-11-26T17:09:52.803Z,-4.07
2023-11-26T17:12:20.988Z,-4.06
2023-11-26T17:14:49.053Z,-4.03
2023-11-26T17:17:17.085Z,-3.97
2023-11-26T17:19:47.012Z,-4.04
2023-11-26T17:22:16.446Z,-4.11
2023-11-26T17:24:44.373Z,-4.07
2023-11-26T17:27:12.584Z,-4.07
2023-11-26T17:29:40.479Z,-4.17
2023-11-26T17:32:09.019Z,-4.05
2023-11-26T17:34:37.142Z,-4.02
2023-11-26T17:37:05.064Z,-4.09
2023-11-26T17:39:34.416Z,-4.07
2023-11-26T17:42:02.508Z,-4.17
2023-11-26T17:44:30.616Z,-4.23
2023-11-26T17:46:58.521Z,-4.06
2023-11-26T17:49:28.136Z,-4.16
2023-11-26T17:51:56.206Z,-4.27
2023-11-26T17:54:24.200Z,-4.19
2023-11-26T17:56:53.965Z,-4.18
2023-11-26T17:59:22.021Z,-4.13
2023-11-26T18:01:50.221Z,-4.12
2023-11-26T18:04:19.348Z,-4.03
2023-11-26T18:06:47.441Z,-4.20
2023-11-26T18:09:15.806Z,-4.19
2023-11-26T18:11:43.921Z,-4.23
2023-11-26T18:14:13.196Z,-4.14
2023-11-26T18:16:41.824Z,-4.31
2023-11-26T18:19:10.094Z,-4.30
2023-11-26T18:21:43.245Z,-4.29
2023-11-26T18:24:11.613Z,-4.35
2023-11-26T18:26:39.866Z,-4.53
2023-11-26T18:29:11.624Z,-4.44
2023-11-26T18:31:43.987Z,-4.49
2023-11-26T18:34:12.056Z,-4.51
2023-11-26T18:36:40.672Z,-4.52
2023-11-26T18:39:10.783Z,-4.33
2023-11-26T18:41:38.732Z,-4.46
2023-11-26T18:44:08.636Z,-4.57
2023-11-26T18:46:37.935Z,-4.48
2023-11-26T18:49:07.283Z,-4.53
2023-11-26T18:51:35.462Z,-4.46
2023-11-26T18:54:04.282Z,-4.35
2023-11-26T18:56:32.242Z,-4.42
2023-11-26T18:59:07.667Z,-4.43
2023-11-26T19:01:36.222Z,-4.52
2023-11-26T19:04:04.428Z,-4.40
2023-11-26T19:06:34.163Z,-4.37
2023-11-26T19:09:04.031Z,-4.48
2023-11-26T19:11:33.661Z,-4.53
2023-11-26T19:14:02.431Z,-4.49
2023-11-26T19:16:30.460Z,-4.37
2023-11-26T19:18:58.678Z,-4.37
2023-11-26T19:21:27.536Z,-4.35
2023-11-26T19:23:57.133Z,-4.34
2023-11-26T19:26:25.600Z,-4.36
2023-11-26T19:28:54.045Z,-4.46
2023-11-26T19:31:26.511Z,-4.38
2023-11-26T19:33:54.845Z,-4.43
2023-11-26T19:36:24.505Z,-4.34
2023-11-26T19:38:53.271Z,-4.48
2023-11-26T19:41:22.822Z,-4.44
2023-11-26T19:43:51.027Z,-4.42
2023-11-26T19:46:19.632Z,-4.29
2023-11-26T19:48:49.452Z,-4.33
2023-11-26T19:51:19.808Z,-4.25
2023-11-26T19:53:47.964Z,-4.20
2023-11-26T19:56:16.378Z,-4.27
2023-11-26T19:58:47.304Z,-4.36
2023-11-26T20:01:16.198Z,-4.25
2023-11-26T20:03:46.365Z,-4.20
2023-11-26T20:06:14.498Z,-4.19
2023-11-26T20:08:44.371Z,-4.42
2023-11-26T20:11:12.814Z,-4.30
2023-11-26T20:13:40.825Z,-4.41
2023-11-26T20:16:15.139Z,-4.45
2023-11-26T20:18:43.268Z,-4.32
2023-11-26T20:21:11.351Z,-4.37
2023-11-26T20:23:39.367Z,-4.32
2023-11-26T20:26:07.867Z,-4.33
2023-11-26T20:28:37.367Z,-4.38
2023-11-26T20:31:08.938Z,-4.42
2023-11-26T20:33:40.319Z,-4.51
2023-11-26T20:36:17.411Z,-4.32
2023-11-26T20:38:45.401Z,-4.30
2023-11-26T20:41:13.731Z,-4.33
2023-11-26T20:43:41.677Z,-4.37
2023-11-26T20:46:09.689Z,-4.33
2023-11-26T20:48:39.832Z,-4.33
2023-11-26T20:51:08.620Z,-4.36
2023-11-26T20:53:38.423Z,-4.32
2023-11-26T20:56:08.191Z,-4.25
2023-11-26T20:58:36.136Z,-4.35
2023-11-26T21:01:05.030Z,-4.30
2023-11-26T21:03:32.979Z,-4.33
2023-11-26T21:06:03.542Z,-4.52
2023-11-26T21:08:32.948Z,-4.54
2023-11-26T21:11:04.570Z,-4.46
2023-11-26T21:13:33.552Z,-4.62
2023-11-26T21:16:02.027Z,-4.65
2023-11-26T21:18:30.311Z,-4.65
2023-11-26T21:20:58.852Z,-4.57
2023-11-26T21:23:28.969Z,-4.60
2023-11-26T21:25:56.975Z,-4.57
2023-11-26T21:28:25.697Z,-4.71
2023-11-26T21:30:53.685Z,-4.66
2023-11-26T21:33:21.665Z,-4.67
2023-11-26T21:35:49.840Z,-4.78
2023-11-26T21:38:17.718Z,-4.69
2023-11-26T21:40:53.532Z,-4.76
2023-11-26T21:43:29.337Z,-4.73
2023-11-26T21:45:57.308Z,-4.64
2023-11-26T21:48:25.231Z,-4.57
2023-11-26T21:50:53.304Z,-4.68
2023-11-26T21:53:21.198Z,-4.65
2023-11-26T21:55:50.516Z,-4.65
2023-11-26T21:58:18.615Z,-4.68
2023-11-26T22:00:46.659Z,-4.57
2023-11-26T22:03:14.719Z,-4.54
2023-11-26T22:05:42.934Z,-4.57
2023-11-26T22:08:10.878Z,-4.61
2023-11-26T22:10:38.777Z,-4.56
2023-11-26T22:13:08.300Z,-4.48
2023-11-26T22:15:36.328Z,-4.45
2023-11-26T22:18:04.501Z,-4.42
2023-11-26T22:20:32.583Z,-4.41
2023-11-26T22:23:00.974Z,-4.50
2023-11-26T22:25:29.433Z,-4.46
2023-11-26T22:27:57.728Z,-4.45
2023-11-26T22:30:27.028Z,-4.34
2023-11-26T22:32:55.004Z,-4.46
2023-11-26T22:35:25.263Z,-4.33
2023-11-26T22:37:53.190Z,-4.27
2023-11-26T22:40:21.218Z,-4.39
2023-11-26T22:42:49.369Z,-4.40
2023-11-26T22:45:17.615Z,-4.36
2023-11-26T22:47:46.893Z,-4.28
2023-11-26T22:50:17.350Z,-4.27
2023-11-26T22:52:47.395Z,-4.40
2023-11-26T22:55:16.914Z,-4.35
2023-11-26T22:57:46.207Z,-4.26
2023-11-26T23:00:21.974Z,-4.29
2023-11-26T23:02:52.301Z,-4.36
2023-11-26T23:05:20.504Z,-4.17
2023-11-26T23:07:48.537Z,-4.21
2023-11-26T23:10:16.808Z,-4.37
2023-11-26T23:12:44.869Z,-4.18
2023-11-26T23:15:13.126Z,-4.14
2023-11-26T23:17:41.165Z,-4.11
2023-11-26T23:20:11.370Z,-4.04
2023-11-26T23:22:39.409Z,-4.08
2023-11-26T23:25:10.709Z,-4.17
2023-11-26T23:27:40.238Z,-4.18
2023-11-26T23:30:09.181Z,-4.13
2023-11-26T23:32:37.202Z,-4.17
2023-11-26T23:35:05.879Z,-4.08
2023-11-26T23:37:35.223Z,-4.02
2023-11-26T23:40:03.526Z,-4.05
2023-11-26T23:42:31.666Z,-4.02
2023-11-26T23:44:59.742Z,-4.01
2023-11-26T23:47:27.736Z,-3.98
2023-11-26T23:49:55.854Z,-4.02
2023-11-26T23:52:24.301Z,-4.03
2023-11-26T23:54:55.208Z,-4.01
2023-11-26T23:57:24.187Z,-4.13
2023-11-26T23:59:52.136Z,-4.05
